Terminal Aerodrome Forecast
Issued by NWS Greer, SC

Home | Current Version | Previous Version | Text Only | Print | Product List | Glossary On
Versions: 1 2 3 4 5 6 7 8 9 10 11 12 13 14 15 16 17 18 19 20 21 22 23 24 25 26 27 28 29 30 31 32 33 34 35
000
FTUS42 KGSP 310500
TAFAVL
TAF
KAVL 310532Z 3106/0106 00000KT P6SM VCTS BKN050CB
      TEMPO 3107/3109 3SM -TSRA OVC030CB
     FM310900 00000KT 2SM BR VCTS BKN017CB
     FM311300 17003KT P6SM BKN070
     FM311800 19007KT P6SM BKN045 PROB30 3120/0102 4SM TSRA BKN040CB
     FM010200 00000KT P6SM BKN060=

USA.gov is the U.S. government's official web portal to all federal, state and local government web resources and services.